Time;durP1;ratioP1;P1;durP2;ratioP2;P2;SDS_P1;SDS_P2;PMS_P1;PMS_P2;Temp;Humidity;BMP_temperature;BMP_pressure;BME280_temperature;BME280_humidity;BME280_pressure;Samples;Min_cycle;Max_cycle;Signal;HPM_P1;HPM_P2
2022/04/02 00:01:29;;;;;;;25.67;19.43;;;2.40;99.90;;;;;;5014321;28;20180;-72
2022/04/02 00:03:54;;;;;;;32.20;21.07;;;2.50;99.90;;;;;;5024337;28;20184;-74
2022/04/02 00:06:20;;;;;;;30.57;19.80;;;2.50;99.90;;;;;;5014248;28;20836;-72
2022/04/02 00:08:46;;;;;;;34.20;21.70;;;2.60;99.90;;;;;;5014192;28;20541;-72
2022/04/02 00:11:12;;;;;;;29.67;21.20;;;2.50;99.90;;;;;;5013675;28;20203;-72
2022/04/02 00:13:38;;;;;;;30.60;21.33;;;2.50;99.90;;;;;;5014987;28;20238;-72
2022/04/02 00:16:05;;;;;;;28.20;20.87;;;2.50;99.90;;;;;;5013710;28;20435;-72
2022/04/02 00:18:30;;;;;;;27.67;20.77;;;2.60;99.90;;;;;;5014047;28;20402;-72
2022/04/02 00:20:57;;;;;;;27.97;21.33;;;2.60;99.90;;;;;;5013540;28;20490;-72
2022/04/02 00:23:41;;;;;;;32.23;22.97;;;2.50;99.90;;;;;;5014582;28;20288;-72
2022/04/02 00:26:08;;;;;;;30.47;21.40;;;2.50;99.90;;;;;;5013259;28;20492;-72
2022/04/02 00:28:36;;;;;;;35.63;23.43;;;2.40;99.90;;;;;;5013854;28;20814;-72
2022/04/02 00:31:02;;;;;;;30.73;22.57;;;2.50;99.90;;;;;;5013321;28;20509;-72
2022/04/02 00:33:28;;;;;;;32.80;22.97;;;2.50;99.90;;;;;;5014718;28;20475;-73
2022/04/02 00:35:54;;;;;;;30.57;22.57;;;2.40;99.90;;;;;;5012964;28;20426;-73
2022/04/02 00:38:19;;;;;;;31.00;22.40;;;2.40;99.90;;;;;;5029452;28;20210;-72
2022/04/02 00:40:45;;;;;;;33.20;23.90;;;2.50;99.90;;;;;;5033077;28;20179;-72
2022/04/02 00:43:28;;;;;;;35.27;24.67;;;2.60;99.90;;;;;;5033504;28;20167;-73
2022/04/02 00:45:55;;;;;;;30.30;22.83;;;2.50;99.90;;;;;;5033275;28;20190;-72
2022/04/02 00:48:22;;;;;;;35.17;24.03;;;2.60;99.90;;;;;;5031912;28;20512;-72
2022/04/02 00:50:52;;;;;;;38.57;23.53;;;2.60;99.90;;;;;;5032995;28;20406;-73
2022/04/02 00:53:18;;;;;;;32.60;23.40;;;2.50;99.90;;;;;;5033140;28;20914;-73
2022/04/02 00:55:45;;;;;;;31.00;21.50;;;2.20;99.90;;;;;;5033494;28;20436;-73
2022/04/02 00:58:11;;;;;;;29.17;21.50;;;2.20;99.90;;;;;;5028508;28;20469;-75
2022/04/02 01:00:38;;;;;;;27.60;18.43;;;2.30;99.90;;;;;;5015114;28;20411;-73
2022/04/02 01:03:03;;;;;;;25.20;18.57;;;2.20;99.90;;;;;;5012808;28;20907;-73
2022/04/02 01:05:29;;;;;;;21.60;16.47;;;2.10;99.90;;;;;;5013180;28;20482;-73
2022/04/02 01:07:55;;;;;;;24.00;17.13;;;1.90;99.90;;;;;;5013122;28;20214;-74
2022/04/02 01:10:21;;;;;;;20.10;15.30;;;2.00;99.90;;;;;;5013881;28;20188;-74
2022/04/02 01:12:47;;;;;;;20.47;16.57;;;2.10;99.90;;;;;;5012982;28;20470;-74
2022/04/02 01:15:12;;;;;;;23.80;17.47;;;2.00;99.90;;;;;;5012758;28;20414;-73
2022/04/02 01:17:40;;;;;;;20.37;15.93;;;2.10;99.90;;;;;;5012921;28;20541;-72
2022/04/02 01:20:09;;;;;;;20.60;16.27;;;2.20;99.90;;;;;;5013646;28;20578;-73
2022/04/02 01:22:35;;;;;;;21.27;17.13;;;2.20;99.90;;;;;;5013028;28;20414;-73
2022/04/02 01:25:01;;;;;;;23.67;18.20;;;2.40;99.90;;;;;;5012490;28;20508;-73
2022/04/02 01:27:26;;;;;;;22.30;18.10;;;2.50;99.90;;;;;;5012862;28;20457;-72
2022/04/02 01:29:52;;;;;;;23.67;17.70;;;2.50;99.90;;;;;;5013655;28;20649;-73
2022/04/02 01:32:17;;;;;;;22.80;16.30;;;2.60;99.90;;;;;;5012891;28;20172;-71
2022/04/02 01:34:43;;;;;;;22.70;17.13;;;2.60;99.90;;;;;;4994978;28;20671;-72
2022/04/02 01:37:09;;;;;;;21.43;16.07;;;2.60;99.90;;;;;;5011310;28;20191;-72
2022/04/02 01:39:35;;;;;;;21.33;17.07;;;2.60;99.90;;;;;;5012397;28;20226;-71
2022/04/02 01:42:06;;;;;;;20.93;16.50;;;2.60;99.90;;;;;;5013398;28;20529;-72
2022/04/02 01:44:32;;;;;;;18.50;14.90;;;2.50;99.90;;;;;;5012599;28;20456;-72
2022/04/02 01:46:57;;;;;;;19.73;13.70;;;2.30;99.90;;;;;;5012162;28;20478;-72
2022/04/02 01:49:23;;;;;;;17.57;13.73;;;2.30;99.90;;;;;;5012409;28;20493;-73
2022/04/02 01:51:48;;;;;;;13.83;10.53;;;2.30;99.90;;;;;;5013464;28;20555;-74
2022/04/02 01:54:14;;;;;;;14.57;11.20;;;2.20;99.90;;;;;;5012284;28;20234;-73
2022/04/02 01:56:40;;;;;;;16.03;9.90;;;2.30;99.90;;;;;;4994665;28;20230;-73
2022/04/02 01:59:05;;;;;;;11.87;9.23;;;2.10;99.90;;;;;;5011694;28;20230;-73
2022/04/02 02:01:31;;;;;;;11.23;9.00;;;2.10;99.90;;;;;;5013436;28;20411;-74
2022/04/02 02:03:57;;;;;;;10.13;8.30;;;2.00;99.90;;;;;;5011925;28;20254;-75
2022/04/02 02:06:22;;;;;;;10.10;7.90;;;2.10;99.90;;;;;;5011943;28;20200;-73
2022/04/02 02:08:48;;;;;;;9.70;8.40;;;2.20;99.90;;;;;;5012486;28;20513;-73
2022/04/02 02:11:14;;;;;;;8.93;7.07;;;2.20;99.90;;;;;;5011600;28;20899;-73
2022/04/02 02:13:40;;;;;;;9.80;6.90;;;2.30;99.90;;;;;;5013056;28;20175;-73
2022/04/02 02:16:05;;;;;;;11.70;7.20;;;2.20;99.90;;;;;;5012088;28;20426;-74
2022/04/02 02:18:31;;;;;;;8.03;6.43;;;2.10;99.90;;;;;;5012182;28;20179;-72
2022/04/02 02:20:56;;;;;;;8.67;6.87;;;2.20;99.90;;;;;;4993960;28;20176;-71
2022/04/02 02:23:22;;;;;;;9.67;6.23;;;2.30;99.90;;;;;;5013054;28;20163;-72
2022/04/02 02:25:47;;;;;;;7.40;6.10;;;2.40;99.90;;;;;;5011549;28;20207;-72
2022/04/02 02:28:14;;;;;;;10.47;6.67;;;2.30;99.90;;;;;;4994148;28;20192;-72
2022/04/02 02:30:40;;;;;;;7.67;6.23;;;2.50;99.90;;;;;;5011855;28;20168;-73
2022/04/02 02:36:10;;;;;;;6.83;5.53;;;2.30;99.90;;;;;;4913319;29;20298;-73
2022/04/02 02:38:35;;;;;;;7.13;6.13;;;2.30;99.90;;;;;;4930465;29;20513;-73
2022/04/02 02:41:02;;;;;;;6.17;5.50;;;2.40;99.90;;;;;;4916047;29;20206;-73
2022/04/02 02:43:28;;;;;;;4.60;4.20;;;2.20;99.90;;;;;;4932291;29;20633;-74
2022/04/02 02:45:54;;;;;;;6.00;4.97;;;2.20;99.90;;;;;;4931957;29;20466;-72
2022/04/02 02:48:21;;;;;;;9.47;4.70;;;2.20;99.90;;;;;;4930431;29;20218;-72
2022/04/02 02:50:47;;;;;;;4.90;4.40;;;2.30;99.90;;;;;;4936088;29;20198;-73
2022/04/02 02:53:13;;;;;;;6.80;4.10;;;2.40;99.90;;;;;;4936667;29;20444;-73
2022/04/02 02:55:39;;;;;;;4.83;4.20;;;2.50;99.90;;;;;;4939438;29;20437;-74
2022/04/02 02:58:05;;;;;;;5.20;4.20;;;2.50;99.90;;;;;;4936955;29;20249;-74
2022/04/02 03:00:31;;;;;;;8.17;4.30;;;2.60;99.90;;;;;;4935021;29;20457;-72
2022/04/02 03:02:56;;;;;;;5.73;4.50;;;2.60;99.90;;;;;;4935686;29;20473;-72
2022/04/02 03:05:22;;;;;;;5.10;4.40;;;2.60;99.90;;;;;;4935461;29;20746;-72
2022/04/02 03:07:48;;;;;;;4.97;3.57;;;2.60;99.90;;;;;;5021329;28;20225;-73
2022/04/02 03:10:28;;;;;;;3.90;3.60;;;2.70;99.90;;;;;;5033141;28;20183;-72
2022/04/02 03:12:55;;;;;;;5.20;3.30;;;2.70;99.90;;;;;;5034602;28;20421;-74
2022/04/02 03:15:22;;;;;;;5.93;3.07;;;2.70;99.90;;;;;;5016780;28;20437;-73
2022/04/02 03:17:49;;;;;;;4.37;3.57;;;2.60;99.90;;;;;;5034748;28;20456;-73
2022/04/02 03:20:17;;;;;;;4.67;3.30;;;2.50;99.90;;;;;;5032621;28;20425;-73
2022/04/02 03:22:45;;;;;;;5.00;3.10;;;2.40;99.90;;;;;;5034445;28;20789;-73
2022/04/02 03:25:18;;;;;;;2.83;2.63;;;2.30;99.90;;;;;;5034576;28;20417;-73
2022/04/02 03:27:46;;;;;;;5.07;2.70;;;2.40;99.90;;;;;;5050851;22;21024;-69
2022/04/02 03:30:14;;;;;;;5.30;2.67;;;2.40;99.90;;;;;;5029386;28;20429;-67
2022/04/02 03:32:40;;;;;;;3.67;2.90;;;2.50;99.90;;;;;;5034804;28;20528;-67
2022/04/02 03:35:07;;;;;;;4.80;2.43;;;2.50;99.90;;;;;;5034714;28;20417;-66
2022/04/02 03:37:37;;;;;;;2.63;2.43;;;2.50;99.90;;;;;;5022515;28;20439;-67
2022/04/02 03:40:05;;;;;;;7.13;2.57;;;2.40;99.90;;;;;;5033900;28;20433;-67
2022/04/02 03:42:30;;;;;;;3.20;2.90;;;2.50;99.90;;;;;;5016305;28;20418;-66
2022/04/02 03:44:56;;;;;;;3.90;2.67;;;2.40;99.90;;;;;;5035099;28;20569;-67
2022/04/02 03:47:25;;;;;;;5.23;2.80;;;2.40;99.90;;;;;;5035139;28;21220;-69
2022/04/02 03:49:53;;;;;;;5.88;3.55;;;2.40;99.90;;;;;;5034869;28;20205;-67
2022/04/02 03:52:21;;;;;;;4.43;2.90;;;2.50;99.90;;;;;;5034850;28;20175;-67
2022/04/02 03:54:46;;;;;;;5.17;3.40;;;2.50;99.90;;;;;;5034593;28;20424;-68
2022/04/02 03:57:14;;;;;;;5.20;2.67;;;2.60;99.90;;;;;;5035129;28;20430;-68
2022/04/02 03:59:41;;;;;;;3.90;2.73;;;2.60;99.90;;;;;;5035002;28;20167;-69
2022/04/02 04:02:08;;;;;;;2.50;2.23;;;2.60;99.90;;;;;;5036205;28;20953;-68
2022/04/02 04:04:35;;;;;;;3.23;2.60;;;2.60;99.90;;;;;;5034989;28;20421;-67
2022/04/02 04:07:01;;;;;;;3.43;2.70;;;2.40;99.90;;;;;;5035662;28;20599;-68
2022/04/02 04:09:27;;;;;;;3.23;2.43;;;2.30;99.90;;;;;;5035432;28;20492;-67
2022/04/02 04:11:54;;;;;;;4.67;2.80;;;2.30;99.90;;;;;;5035750;28;20171;-68
2022/04/02 04:14:20;;;;;;;8.27;2.90;;;2.20;99.90;;;;;;5033363;28;20414;-67
2022/04/02 04:16:46;;;;;;;3.80;2.80;;;2.10;99.90;;;;;;5034267;28;20483;-68
2022/04/02 04:19:12;;;;;;;3.60;3.10;;;2.20;99.90;;;;;;5033911;28;21001;-67
2022/04/02 04:21:38;;;;;;;5.73;3.77;;;2.30;99.90;;;;;;5034184;28;20489;-67
2022/04/02 04:24:04;;;;;;;3.47;2.40;;;2.40;99.90;;;;;;5032577;28;20213;-67
2022/04/02 04:26:30;;;;;;;2.90;2.40;;;2.30;99.90;;;;;;5034233;28;20469;-67
2022/04/02 04:28:56;;;;;;;2.93;2.67;;;2.20;99.90;;;;;;5034163;28;20417;-68
2022/04/02 04:31:22;;;;;;;4.03;2.27;;;2.20;99.90;;;;;;5033462;28;20764;-69
2022/04/02 04:33:48;;;;;;;3.60;1.90;;;2.20;99.90;;;;;;5032408;28;20209;-68
2022/04/02 04:36:16;;;;;;;6.80;2.80;;;2.20;99.90;;;;;;5033284;28;20488;-69
2022/04/02 04:38:42;;;;;;;4.63;2.77;;;2.30;99.90;;;;;;5033608;28;20951;-69
2022/04/02 04:41:08;;;;;;;2.43;2.20;;;2.20;99.90;;;;;;5033240;28;20414;-69
2022/04/02 04:43:34;;;;;;;2.40;2.20;;;2.20;99.90;;;;;;5033605;28;21017;-68
2022/04/02 04:46:02;;;;;;;2.73;2.50;;;2.30;99.90;;;;;;5033484;28;20170;-68
2022/04/02 04:48:27;;;;;;;3.10;2.80;;;2.30;99.90;;;;;;5034170;28;20438;-68
2022/04/02 04:50:53;;;;;;;3.47;2.60;;;2.30;99.90;;;;;;5033917;28;20416;-68
2022/04/02 04:53:18;;;;;;;3.27;2.37;;;2.30;99.90;;;;;;5034206;28;20266;-68
2022/04/02 04:55:44;;;;;;;5.37;3.60;;;2.40;99.90;;;;;;5034406;28;20190;-69
2022/04/02 04:58:10;;;;;;;4.60;3.93;;;2.30;99.90;;;;;;5033494;28;20203;-67
2022/04/02 05:00:35;;;;;;;4.20;3.23;;;2.40;99.90;;;;;;5034321;28;20185;-68
2022/04/02 05:03:01;;;;;;;4.13;2.60;;;2.50;99.90;;;;;;5034383;28;20175;-71
2022/04/02 05:05:28;;;;;;;5.10;3.50;;;2.50;99.90;;;;;;5044771;28;20171;-68
2022/04/02 05:07:54;;;;;;;3.77;3.03;;;2.50;99.90;;;;;;5045107;28;20202;-67
2022/04/02 05:10:20;;;;;;;3.00;2.73;;;2.50;99.90;;;;;;5045300;28;20432;-68
2022/04/02 05:12:45;;;;;;;2.73;2.53;;;2.50;99.90;;;;;;5038138;28;20746;-67
2022/04/02 05:15:11;;;;;;;5.50;3.17;;;2.40;99.90;;;;;;5019631;28;20418;-68
2022/04/02 05:17:37;;;;;;;2.70;2.50;;;2.30;99.90;;;;;;5036572;28;20201;-68
2022/04/02 05:20:07;;;;;;;5.83;2.97;;;2.10;99.90;;;;;;5023523;28;20179;-69
2022/04/02 05:22:33;;;;;;;2.43;2.23;;;2.10;99.90;;;;;;5038899;28;20398;-67
2022/04/02 05:24:58;;;;;;;4.87;3.90;;;2.20;99.90;;;;;;5019608;28;20467;-67
2022/04/02 05:27:28;;;;;;;3.30;2.70;;;2.20;99.90;;;;;;5035721;28;20275;-67
2022/04/02 05:29:54;;;;;;;3.30;2.57;;;2.40;99.90;;;;;;5033535;28;20639;-68
2022/04/02 05:32:19;;;;;;;3.97;2.70;;;2.30;99.90;;;;;;5034264;28;20409;-68
2022/04/02 05:34:45;;;;;;;2.80;2.20;;;2.20;99.90;;;;;;5034741;28;20171;-68
2022/04/02 05:37:10;;;;;;;4.00;2.77;;;2.30;99.90;;;;;;5035012;28;20569;-68
2022/04/02 05:39:36;;;;;;;4.47;3.30;;;2.20;99.90;;;;;;5035312;28;20167;-68
2022/04/02 05:42:05;;;;;;;4.53;3.07;;;2.20;99.90;;;;;;5034487;28;20195;-68
2022/04/02 05:44:31;;;;;;;3.70;2.53;;;2.30;99.90;;;;;;5033621;28;20544;-67
2022/04/02 05:46:56;;;;;;;2.80;2.60;;;2.40;99.90;;;;;;5033231;28;20548;-68
2022/04/02 05:49:22;;;;;;;5.33;3.60;;;2.30;99.90;;;;;;5032224;28;20425;-69
2022/04/02 05:51:48;;;;;;;5.60;3.23;;;2.30;99.90;;;;;;5032580;28;20167;-68
2022/04/02 05:54:14;;;;;;;6.67;4.70;;;2.20;99.90;;;;;;5015073;28;20190;-67
2022/04/02 05:56:40;;;;;;;9.03;4.63;;;2.40;99.90;;;;;;5032992;28;20926;-68
2022/04/02 05:59:05;;;;;;;6.53;5.10;;;2.40;99.90;;;;;;5031941;28;20424;-68
2022/04/02 06:01:32;;;;;;;2.90;2.70;;;2.60;99.90;;;;;;5032763;28;20413;-68
2022/04/02 06:03:58;;;;;;;3.47;2.93;;;2.50;99.90;;;;;;5032987;28;20175;-67
2022/04/02 06:06:23;;;;;;;3.30;2.60;;;2.30;99.90;;;;;;5032606;28;20425;-67
2022/04/02 06:08:49;;;;;;;3.43;2.97;;;2.20;99.90;;;;;;5015634;28;20425;-67
2022/04/02 06:11:14;;;;;;;6.37;3.10;;;2.10;99.90;;;;;;5032652;28;20250;-68
2022/04/02 06:13:40;;;;;;;5.90;3.20;;;2.20;99.90;;;;;;5032862;28;20175;-67
2022/04/02 06:16:06;;;;;;;3.23;2.93;;;2.20;99.90;;;;;;5032588;28;20175;-68
2022/04/02 06:18:32;;;;;;;4.03;3.27;;;2.10;99.90;;;;;;5032858;28;20169;-67
2022/04/02 06:21:02;;;;;;;3.37;3.07;;;2.20;99.90;;;;;;5032538;28;20501;-68
2022/04/02 06:23:27;;;;;;;3.63;2.50;;;2.40;99.90;;;;;;5015336;28;20413;-67
2022/04/02 06:25:53;;;;;;;3.70;2.50;;;2.50;99.90;;;;;;5036774;28;20462;-67
2022/04/02 06:28:19;;;;;;;4.17;3.23;;;2.60;99.90;;;;;;5036267;28;20309;-68
2022/04/02 06:30:45;;;;;;;4.57;2.90;;;2.70;99.90;;;;;;5018527;28;20226;-68
2022/04/02 06:33:10;;;;;;;4.90;2.83;;;2.80;99.90;;;;;;5036918;28;20420;-67
2022/04/02 06:35:36;;;;;;;2.90;2.60;;;2.80;99.90;;;;;;5036867;28;20177;-67
2022/04/02 06:38:01;;;;;;;3.00;2.70;;;2.70;99.90;;;;;;5036303;28;20822;-68
2022/04/02 06:40:27;;;;;;;3.87;3.50;;;2.60;99.90;;;;;;5036081;28;20170;-69
2022/04/02 06:42:53;;;;;;;4.43;3.33;;;2.60;99.90;;;;;;5036288;28;20182;-67
2022/04/02 06:45:18;;;;;;;3.37;3.07;;;2.70;99.90;;;;;;5036771;28;20194;-68
2022/04/02 06:47:44;;;;;;;4.50;3.30;;;2.70;99.90;;;;;;5036659;28;20461;-69
2022/04/02 06:50:12;;;;;;;3.30;3.00;;;2.70;99.90;;;;;;5036432;28;20163;-69
2022/04/02 06:52:38;;;;;;;3.53;3.23;;;2.80;99.90;;;;;;5022240;28;20555;-67
2022/04/02 06:55:04;;;;;;;3.33;3.03;;;2.80;99.90;;;;;;5032843;28;20879;-67
2022/04/02 06:57:30;;;;;;;6.43;3.40;;;2.80;99.90;;;;;;5047819;28;20812;-68
2022/04/02 06:59:56;;;;;;;2.93;2.73;;;2.90;99.90;;;;;;5049352;28;20479;-67
2022/04/02 07:02:21;;;;;;;3.97;3.07;;;3.00;99.90;;;;;;5029719;28;20476;-67
2022/04/02 07:04:48;;;;;;;4.30;3.60;;;3.10;99.90;;;;;;5049506;28;20819;-66
2022/04/02 07:07:14;;;;;;;3.10;2.80;;;3.00;99.90;;;;;;5047647;28;20264;-68
2022/04/02 07:09:39;;;;;;;4.27;3.13;;;2.90;99.90;;;;;;5040539;28;20831;-69
2022/04/02 07:12:06;;;;;;;3.70;3.40;;;2.70;99.90;;;;;;5025456;28;20304;-68
2022/04/02 07:14:33;;;;;;;3.77;3.37;;;2.80;99.90;;;;;;5051115;28;20480;-67
2022/04/02 07:16:59;;;;;;;5.07;3.73;;;2.80;99.90;;;;;;5025053;28;20500;-68
2022/04/02 07:19:25;;;;;;;5.93;3.80;;;2.90;99.90;;;;;;5017739;28;20540;-67
2022/04/02 07:21:53;;;;;;;6.17;3.40;;;3.10;99.90;;;;;;5052060;28;20453;-68
2022/04/02 07:24:19;;;;;;;4.77;3.40;;;3.20;99.90;;;;;;5056062;28;20537;-69
2022/04/02 07:26:46;;;;;;;3.90;3.43;;;3.20;99.90;;;;;;5049514;28;20485;-68
2022/04/02 07:29:13;;;;;;;4.87;3.43;;;3.10;99.90;;;;;;5042430;28;20413;-69
2022/04/02 07:31:39;;;;;;;7.40;3.83;;;3.20;99.90;;;;;;5054702;28;20984;-67
2022/04/02 07:34:05;;;;;;;4.57;3.43;;;3.40;99.90;;;;;;5054761;28;20405;-69
2022/04/02 07:36:43;;;;;;;3.53;3.23;;;3.60;99.90;;;;;;5053180;28;20501;-68
2022/04/02 07:39:17;;;;;;;5.00;3.20;;;3.40;99.90;;;;;;5019297;28;20182;-67
2022/04/02 07:42:17;;;;;;;5.83;3.40;;;3.40;99.90;;;;;;5034742;28;20816;-67
2022/04/02 07:45:02;;;;;;;4.10;3.70;;;3.50;99.90;;;;;;5017121;28;20425;-67
2022/04/02 07:47:34;;;;;;;3.30;2.83;;;3.50;99.90;;;;;;5034844;28;20896;-68
2022/04/02 07:50:04;;;;;;;3.37;3.07;;;3.30;99.90;;;;;;5034357;28;20428;-68
2022/04/02 07:52:30;;;;;;;4.90;3.00;;;3.20;99.90;;;;;;5035162;28;20423;-67
2022/04/02 07:54:58;;;;;;;3.00;2.80;;;3.00;99.90;;;;;;5035385;28;20411;-67
2022/04/02 07:57:41;;;;;;;3.63;2.90;;;3.00;99.90;;;;;;5034307;28;20453;-67
2022/04/02 08:00:10;;;;;;;4.50;3.80;;;3.30;99.90;;;;;;5016201;28;20772;-66
2022/04/02 08:02:38;;;;;;;5.03;4.53;;;3.40;99.90;;;;;;5034345;28;20413;-68
2022/04/02 08:05:11;;;;;;;4.07;3.10;;;3.40;99.90;;;;;;5034649;28;20421;-67
2022/04/02 08:07:38;;;;;;;4.23;3.10;;;3.40;99.90;;;;;;5034119;28;20455;-68
2022/04/02 08:10:10;;;;;;;4.93;3.23;;;3.50;99.90;;;;;;5034484;28;20417;-68
2022/04/02 08:12:37;;;;;;;5.00;3.50;;;3.50;99.90;;;;;;5034724;28;20773;-68
2022/04/02 08:15:24;;;;;;;3.73;2.87;;;3.50;99.90;;;;;;5034507;28;20427;-67
2022/04/02 08:17:53;;;;;;;4.70;3.07;;;3.40;99.90;;;;;;5034314;28;20514;-68
2022/04/02 08:20:20;;;;;;;5.20;3.20;;;3.50;99.90;;;;;;5041328;28;20420;-67
2022/04/02 08:22:46;;;;;;;4.43;4.03;;;3.60;99.90;;;;;;5053693;28;20417;-68
2022/04/02 08:25:13;;;;;;;4.30;3.37;;;3.90;99.90;;;;;;5053746;28;20492;-68
2022/04/02 08:27:47;;;;;;;3.63;3.17;;;4.10;99.90;;;;;;5053439;28;20564;-67
2022/04/02 08:30:24;;;;;;;4.80;3.77;;;3.90;99.90;;;;;;5033397;28;20429;-67
2022/04/02 08:33:13;;;;;;;3.90;2.97;;;4.10;99.90;;;;;;5034625;28;20472;-68
2022/04/02 08:35:41;;;;;;;4.60;2.87;;;4.30;99.90;;;;;;5034357;28;20388;-68
2022/04/02 08:38:17;;;;;;;3.40;3.10;;;3.90;99.90;;;;;;5034750;28;20483;-67
2022/04/02 08:41:06;;;;;;;3.53;3.23;;;4.00;99.90;;;;;;5032016;28;20444;-66
2022/04/02 08:44:09;;;;;;;4.50;3.40;;;3.90;99.90;;;;;;5034061;28;20425;-68
2022/04/02 08:46:43;;;;;;;4.67;3.77;;;4.20;99.90;;;;;;5033506;28;20550;-70
2022/04/02 08:49:39;;;;;;;3.43;3.20;;;4.20;99.90;;;;;;5037978;28;20516;-68
2022/04/02 08:52:14;;;;;;;7.97;3.93;;;4.30;99.90;;;;;;5020916;28;20411;-67
2022/04/02 08:55:05;;;;;;;13.40;4.50;;;4.50;99.90;;;;;;5016075;28;20424;-67
2022/04/02 08:57:35;;;;;;;4.30;3.23;;;4.80;99.90;;;;;;5034048;28;20948;-67
2022/04/02 09:00:13;;;;;;;3.43;2.87;;;4.80;99.00;;;;;;5034151;28;20420;-66
2022/04/02 09:02:54;;;;;;;4.17;3.30;;;4.70;98.10;;;;;;5034984;28;20504;-67
2022/04/02 09:05:25;;;;;;;3.40;3.10;;;4.50;98.90;;;;;;5034049;28;20837;-67
2022/04/02 09:07:50;;;;;;;3.17;2.90;;;4.40;98.90;;;;;;5015322;28;20528;-67
2022/04/02 09:10:39;;;;;;;6.17;3.43;;;4.50;99.00;;;;;;5032746;28;20853;-68
2022/04/02 09:13:33;;;;;;;3.90;3.10;;;4.60;99.00;;;;;;5018806;28;20217;-67
2022/04/02 09:16:04;;;;;;;3.60;3.30;;;4.70;98.90;;;;;;5035689;28;20513;-68
2022/04/02 09:19:07;;;;;;;3.63;3.03;;;4.70;98.50;;;;;;5037217;28;20463;-67
2022/04/02 09:22:02;;;;;;;4.73;3.50;;;4.50;97.80;;;;;;5046846;28;20441;-67
2022/04/02 09:24:28;;;;;;;4.20;3.80;;;4.70;98.70;;;;;;5038090;28;20793;-68
2022/04/02 09:27:31;;;;;;;5.10;3.87;;;4.80;98.00;;;;;;5040041;28;20509;-68
2022/04/02 09:30:44;;;;;;;3.00;2.80;;;4.50;98.00;;;;;;5032841;28;20931;-68
2022/04/02 09:33:40;;;;;;;4.70;3.40;;;4.60;99.00;;;;;;4971760;28;20890;-68
2022/04/02 09:36:35;;;;;;;3.83;3.33;;;4.70;98.50;;;;;;5018859;28;20408;-68
2022/04/02 09:39:46;;;;;;;4.53;3.17;;;4.90;98.30;;;;;;5015312;28;20523;-68
2022/04/02 09:42:33;;;;;;;4.00;3.60;;;4.90;97.70;;;;;;4951628;29;20411;-67
2022/04/02 09:45:12;;;;;;;4.53;3.60;;;4.80;96.90;;;;;;4945037;29;20482;-67
2022/04/02 09:48:10;;;;;;;4.90;4.03;;;4.80;97.60;;;;;;4950820;29;20477;-68
2022/04/02 09:50:36;;;;;;;4.87;3.30;;;4.80;97.30;;;;;;4950736;29;20416;-68
2022/04/02 09:53:10;;;;;;;4.77;3.63;;;4.80;97.00;;;;;;4953413;29;20435;-67
2022/04/02 09:55:47;;;;;;;3.50;3.20;;;4.60;97.70;;;;;;4949490;29;20431;-68
2022/04/02 09:59:07;;;;;;;4.93;3.30;;;4.80;98.20;;;;;;4950151;28;20453;-67
2022/04/02 10:01:58;;;;;;;4.50;3.93;;;4.90;96.70;;;;;;4875102;29;20443;-68
2022/04/02 10:04:42;;;;;;;5.50;3.87;;;4.60;96.90;;;;;;4875075;29;20437;-67
2022/04/02 10:07:15;;;;;;;3.97;3.63;;;4.90;97.60;;;;;;4875047;29;20515;-68
2022/04/02 10:09:44;;;;;;;7.20;4.07;;;5.20;97.60;;;;;;4874826;29;20478;-68
2022/04/02 10:12:11;;;;;;;4.00;3.40;;;5.40;97.40;;;;;;4874806;29;21069;-67
2022/04/02 10:14:39;;;;;;;4.43;4.00;;;5.60;96.70;;;;;;4874696;29;20577;-67
2022/04/02 10:17:09;;;;;;;5.83;4.27;;;5.70;96.60;;;;;;4889954;29;20475;-67
2022/04/02 10:19:37;;;;;;;3.87;3.53;;;5.90;96.60;;;;;;4950091;28;20445;-68
2022/04/02 10:22:08;;;;;;;5.00;3.90;;;6.10;96.10;;;;;;4953226;28;20505;-68
2022/04/02 10:24:47;;;;;;;4.90;3.80;;;6.20;95.00;;;;;;4941312;28;20433;-69
2022/04/02 10:27:23;;;;;;;4.20;3.63;;;6.00;95.00;;;;;;4950155;28;20533;-68
2022/04/02 10:30:10;;;;;;;3.80;3.50;;;6.00;94.30;;;;;;4954957;28;20873;-69
2022/04/02 10:32:54;;;;;;;4.90;4.40;;;5.90;94.80;;;;;;5009532;28;20420;-67
2022/04/02 10:35:22;;;;;;;4.03;3.40;;;6.00;94.80;;;;;;5050204;28;20404;-68
2022/04/02 10:38:09;;;;;;;4.57;4.27;;;6.00;94.60;;;;;;5034042;28;20495;-68
2022/04/02 10:40:56;;;;;;;4.83;4.33;;;6.20;94.40;;;;;;5012947;28;20444;-68
2022/04/02 10:43:30;;;;;;;4.70;4.27;;;6.00;93.90;;;;;;5047107;28;20420;-68
2022/04/02 10:45:57;;;;;;;4.80;3.90;;;6.00;93.90;;;;;;5015891;28;20507;-68
2022/04/02 10:48:51;;;;;;;4.53;4.10;;;5.90;93.40;;;;;;5030550;28;21047;-67
2022/04/02 10:51:23;;;;;;;5.83;4.57;;;6.00;93.90;;;;;;5013580;28;20449;-67
2022/04/02 10:53:59;;;;;;;5.00;4.17;;;5.90;93.90;;;;;;5019221;28;20408;-71
2022/04/02 10:56:34;;;;;;;5.13;4.30;;;6.00;94.10;;;;;;5043315;28;20437;-68
2022/04/02 10:59:00;;;;;;;5.97;5.40;;;6.00;93.60;;;;;;5032669;28;20428;-68
2022/04/02 11:01:27;;;;;;;4.50;4.10;;;6.00;94.30;;;;;;5032249;28;20417;-70
2022/04/02 11:03:56;;;;;;;6.37;4.20;;;6.20;94.90;;;;;;5032165;28;20425;-69
2022/04/02 11:06:50;;;;;;;4.40;4.00;;;6.40;94.30;;;;;;5046605;23;20864;-70
2022/04/02 11:09:28;;;;;;;5.10;4.37;;;6.20;93.20;;;;;;5038774;28;20453;-69
2022/04/02 11:12:03;;;;;;;5.67;4.50;;;5.90;93.10;;;;;;5040566;28;20408;-69
2022/04/02 11:14:45;;;;;;;5.30;4.30;;;5.80;93.80;;;;;;5056515;28;20407;-69
2022/04/02 11:17:36;;;;;;;5.70;4.37;;;5.70;94.20;;;;;;5056057;28;20432;-70
2022/04/02 11:20:02;;;;;;;5.20;4.40;;;5.70;94.30;;;;;;5055860;28;20419;-69
2022/04/02 11:22:49;;;;;;;5.60;4.77;;;5.60;94.50;;;;;;5066634;28;20889;-69
2022/04/02 11:25:29;;;;;;;4.50;4.10;;;5.70;95.00;;;;;;5055238;28;20565;-69
2022/04/02 11:28:11;;;;;;;5.43;4.70;;;5.80;95.10;;;;;;5039610;28;21082;-70
2022/04/02 11:30:59;;;;;;;4.60;4.20;;;5.80;95.10;;;;;;5045615;28;20899;-69
2022/04/02 11:33:26;;;;;;;5.77;4.67;;;5.50;95.70;;;;;;5053395;28;20409;-70
2022/04/02 11:36:03;;;;;;;5.27;4.70;;;5.30;96.70;;;;;;5055318;28;20436;-70
2022/04/02 11:38:38;;;;;;;5.47;4.60;;;5.40;97.40;;;;;;5055729;28;20408;-68
2022/04/02 11:41:25;;;;;;;7.23;4.97;;;5.30;96.90;;;;;;5046560;28;20421;-70
2022/04/02 11:44:03;;;;;;;8.03;4.57;;;5.40;97.00;;;;;;5039839;28;20416;-71
2022/04/02 11:46:48;;;;;;;5.97;5.10;;;5.50;96.40;;;;;;5055983;28;20436;-70
2022/04/02 11:49:28;;;;;;;4.90;4.50;;;5.40;95.90;;;;;;5053582;28;20432;-70
2022/04/02 11:52:05;;;;;;;4.93;4.43;;;5.60;96.10;;;;;;5040345;28;20420;-70
2022/04/02 11:54:37;;;;;;;5.60;4.97;;;5.70;95.70;;;;;;5054743;28;20407;-68
2022/04/02 11:57:08;;;;;;;5.50;5.00;;;5.70;95.60;;;;;;5055072;28;20451;-68
2022/04/02 11:59:35;;;;;;;8.50;5.10;;;5.70;95.50;;;;;;5046221;28;21288;-69
2022/04/02 12:02:01;;;;;;;6.00;4.90;;;5.40;95.50;;;;;;5068717;28;20436;-69
2022/04/02 12:04:27;;;;;;;6.80;5.47;;;5.10;96.50;;;;;;5061808;28;20478;-68
2022/04/02 12:07:02;;;;;;;5.77;5.17;;;5.30;97.20;;;;;;5067844;28;20491;-70
2022/04/02 12:09:28;;;;;;;4.97;4.47;;;5.40;97.20;;;;;;5071139;28;20223;-69
2022/04/02 12:11:58;;;;;;;4.73;4.23;;;5.30;96.80;;;;;;5060221;28;20999;-67
2022/04/02 12:14:38;;;;;;;6.00;4.70;;;5.20;97.60;;;;;;5060765;28;20835;-69
2022/04/02 12:17:11;;;;;;;6.27;5.50;;;5.30;98.20;;;;;;5062037;28;20436;-69
2022/04/02 12:19:41;;;;;;;6.00;5.40;;;5.30;98.40;;;;;;5055097;28;20463;-70
2022/04/02 12:22:31;;;;;;;5.03;4.60;;;5.30;98.70;;;;;;5068724;28;20952;-70
2022/04/02 12:25:01;;;;;;;6.83;5.50;;;5.50;98.60;;;;;;5049002;28;20468;-71
2022/04/02 12:27:28;;;;;;;4.90;4.50;;;5.70;98.90;;;;;;5056828;28;20465;-70
2022/04/02 12:29:56;;;;;;;7.17;5.40;;;5.90;98.50;;;;;;5058796;28;20468;-68
2022/04/02 12:32:39;;;;;;;8.23;5.30;;;6.00;97.90;;;;;;5060151;28;20432;-71
2022/04/02 12:35:09;;;;;;;9.57;6.30;;;5.80;97.50;;;;;;5075508;28;20464;-69
2022/04/02 12:37:49;;;;;;;9.13;6.27;;;5.70;98.70;;;;;;5075442;28;20434;-68
2022/04/02 12:40:15;;;;;;;7.07;6.37;;;5.10;99.90;;;;;;5076135;28;20436;-67
2022/04/02 12:42:44;;;;;;;6.20;5.37;;;4.90;99.90;;;;;;5078367;28;20443;-65
2022/04/02 12:45:13;;;;;;;6.20;4.60;;;4.70;99.90;;;;;;5069742;28;20782;-70
2022/04/02 12:47:39;;;;;;;7.10;6.20;;;4.50;99.90;;;;;;5066366;28;20457;-67
2022/04/02 12:50:15;;;;;;;6.87;6.17;;;4.60;99.90;;;;;;5061551;28;20426;-70
2022/04/02 12:52:49;;;;;;;6.87;6.00;;;4.80;99.90;;;;;;5058754;28;20958;-70
2022/04/02 12:55:22;;;;;;;8.50;6.00;;;4.90;99.90;;;;;;5051383;28;20444;-68
2022/04/02 12:58:07;;;;;;;7.87;6.37;;;5.00;99.90;;;;;;5051308;28;21024;-70
2022/04/02 13:00:43;;;;;;;7.60;6.13;;;5.10;99.90;;;;;;5055880;28;20999;-71
2022/04/02 13:03:10;;;;;;;6.80;6.20;;;5.30;99.90;;;;;;5055910;28;20593;-70
2022/04/02 13:05:48;;;;;;;6.23;5.67;;;5.20;99.90;;;;;;5048905;28;21058;-71
2022/04/02 13:08:17;;;;;;;9.40;6.37;;;5.50;99.90;;;;;;5046583;28;20597;-70
2022/04/02 13:10:44;;;;;;;6.00;5.37;;;5.80;99.90;;;;;;5048215;28;20420;-70
2022/04/02 13:13:12;;;;;;;8.13;6.87;;;5.90;99.90;;;;;;5048909;28;20485;-70
2022/04/02 13:15:38;;;;;;;7.47;5.73;;;6.10;99.90;;;;;;5050288;28;20524;-71